BIKF/KEF METAR and TAF weather

Enter ICAO airport designator
Station Type Date Time Source
BIKF METAR 2023/10/01 22:00 UTC NOAA

BIKF 012200Z 05003KT CAVOK 08/05 Q0997


Station Type Date Time Source
BIKF Decoded METAR 2023/10/01 22:00 UTC NOAA

Keflavikurflugvollur, Iceland (BIKF) 63-58N 022-36W 54M
Oct 01, 2023 - 06:00 PM EDT / 2023.10.01 2200 UTC
Wind: from the NE (050 degrees) at 3 MPH (3 KT):0
Visibility: greater than 7 mile(s):0
Temperature: 46 F (8 C)
Dew Point: 41 F (5 C)
Relative Humidity: 81%
Pressure (altimeter): 29.44 in. Hg (0997 hPa)
ob: BIKF 012200Z 05003KT CAVOK 08/05 Q0997
cycle: 22

Station Type Date Time Source
BIKF TAF 2023/10/01 21:00 UTC NOAA

TAF BIKF 011958Z 0121/0221 05008KT 9999 SCT040 TX09/0215Z TN06/0206Z
BECMG 0202/0204 03018KT
TEMPO 0206/0221 03020G30KT

Example: see airport list